Terminal Aerodrome Forecast
Issued by NWS Mobile, AL

Home | Current Version | Previous Version | Text Only | Print | Product List | Glossary On
Versions: 1 2 3 4 5 6 7 8 9 10 11 12 13 14 15 16 17 18 19 20 21 22 23 24 25 26 27 28 29
000
FTUS44 KMOB 280500
TAFMOB
TAF
KMOB 280527Z 2806/2906 22007KT P6SM SKC
     FM281600 27011G17KT P6SM FEW050
     FM282100 28010KT P6SM VCTS BKN045CB
      TEMPO 2821/2901 2SM +TSRA BKN015CB
     FM290100 VRB08G17KT 6SM -TSRA BR BKN020CB
     FM290300 30005KT P6SM SCT045 BKN080=

USA.gov is the U.S. government's official web portal to all federal, state and local government web resources and services.